< Cyclone 196709 1967 Season Cyclone 196711 >
Cyclone 196710 (ELAINE)
General InformationTrack Information on Google Maps || ResourceGoogle EarthGE AnimationAtom FeedGeoJSON
Detalied Best Track (Time Zone = UTC)
Year Month Day Hour Lat. Long. Pressure (hPa) Wind (kt) Class Image Chart
1967 3 13 05 -14.6 149.3 998 0 0 -- --
1967 3 13 11 -15.2 149.0 998 0 0 -- --
1967 3 13 23 -16.2 147.9 998 0 0 -- --
1967 3 14 11 -16.6 147.3 997 0 0 -- --
1967 3 14 17 -16.5 146.7 997 0 0 -- --
1967 3 14 23 -16.0 146.9 997 0 0 -- --
1967 3 15 05 -15.8 147.5 996 0 0 -- --
1967 3 15 11 -16.2 148.3 996 0 0 -- --
1967 3 15 23 -17.2 149.2 996 0 0 -- --
1967 3 16 11 -16.9 149.9 996 0 0 -- --
1967 3 16 14 -17.1 150.5 996 0 0 -- --
1967 3 16 23 -19.2 152.7 996 0 0 -- --
1967 3 17 11 -23.2 155.0 996 0 0 -- --
1967 3 17 14 -24.5 155.4 996 0 0 -- --
1967 3 17 17 -25.6 156.0 996 0 0 -- --
1967 3 17 23 -27.9 157.0 996 0 0 -- --
1967 3 18 11 -29.9 157.8 998 0 0 -- --
1967 3 18 23 -31.2 158.6 1000 0 0 -- --
1967 3 19 08 -31.8 160.4 1000 0 0 -- --
1967 3 19 17 -31.9 164.0 1002 0 0 -- --
< Cyclone 196709 1967 Season Cyclone 196711 >

Help